Time,TemperatureF,DewpointF,PressureIn,WindDirection,WindDirectionDegrees,WindSpeedMPH,WindSpeedGustMPH,Humidity,HourlyPrecipIn,Conditions,Clouds,dailyrainin,SoftwareType,DateUTC
2013-05-25 00:02:00,59.0,32.0,-100.00,NNE,25,2.0,5.0,36,-99.99,,,0.00,,2013-05-25 06:02:00,
2013-05-25 00:12:00,57.0,31.0,-100.00,East,85,5.0,6.0,37,-99.99,,,0.00,,2013-05-25 06:12:00,
2013-05-25 00:21:00,57.0,31.0,-100.00,East,85,5.0,6.0,37,-99.99,,,0.00,,2013-05-25 06:21:00,
2013-05-25 00:32:00,57.0,31.0,-100.00,East,85,5.0,6.0,37,-99.99,,,0.00,,2013-05-25 06:32:00,
2013-05-25 00:42:00,57.0,31.0,-100.00,East,85,5.0,6.0,37,-99.99,,,0.00,,2013-05-25 06:42:00,
2013-05-25 00:52:00,56.0,31.0,-100.00,ENE,75,4.0,6.0,37,-99.99,,,0.00,,2013-05-25 06:52:00,
2013-05-25 01:01:00,56.0,31.0,-100.00,ENE,75,4.0,6.0,37,-99.99,,,0.00,,2013-05-25 07:01:00,
2013-05-25 01:11:00,54.0,30.0,-100.00,ENE,70,2.0,5.0,40,-99.99,,,0.00,,2013-05-25 07:11:00,
2013-05-25 01:21:00,54.0,30.0,-100.00,ENE,70,2.0,5.0,40,-99.99,,,0.00,,2013-05-25 07:21:00,
2013-05-25 01:31:00,54.0,30.0,-100.00,ENE,70,2.0,5.0,40,-99.99,,,0.00,,2013-05-25 07:31:00,
2013-05-25 01:41:00,54.0,30.0,-100.00,ENE,70,2.0,5.0,40,-99.99,,,0.00,,2013-05-25 07:41:00,
2013-05-25 01:52:00,51.0,32.0,-100.00,SW,215,2.0,6.0,48,-99.99,,,0.00,,2013-05-25 07:52:00,
2013-05-25 02:02:00,51.0,32.0,-100.00,SW,215,2.0,6.0,48,-99.99,,,0.00,,2013-05-25 08:02:00,
2013-05-25 02:11:00,52.0,32.0,-100.00,NE,40,1.0,4.0,46,-99.99,,,0.00,,2013-05-25 08:11:00,
2013-05-25 02:22:00,52.0,32.0,-100.00,NE,40,1.0,4.0,46,-99.99,,,0.00,,2013-05-25 08:22:00,
2013-05-25 02:32:00,52.0,32.0,-100.00,NE,40,1.0,4.0,46,-99.99,,,0.00,,2013-05-25 08:32:00,
2013-05-25 02:42:00,52.0,32.0,-100.00,NE,40,1.0,4.0,46,-99.99,,,0.00,,2013-05-25 08:42:00,
2013-05-25 02:51:00,49.0,32.0,-100.00,NE,50,1.0,3.0,51,-99.99,,,0.00,,2013-05-25 08:51:00,
2013-05-25 03:01:00,49.0,32.0,-100.00,NE,50,1.0,3.0,51,-99.99,,,0.00,,2013-05-25 09:01:00,
2013-05-25 03:11:00,47.0,33.0,-100.00,SE,135,1.0,3.0,56,-99.99,,,0.00,,2013-05-25 09:11:00,
2013-05-25 03:21:00,47.0,33.0,-100.00,SE,135,1.0,3.0,56,-99.99,,,0.00,,2013-05-25 09:21:00,
2013-05-25 03:33:00,47.0,33.0,-100.00,SE,135,1.0,3.0,56,-99.99,,,0.00,,2013-05-25 09:33:00,
2013-05-25 03:42:00,47.0,33.0,-100.00,SE,135,1.0,3.0,56,-99.99,,,0.00,,2013-05-25 09:42:00,
2013-05-25 03:52:00,46.0,34.0,-100.00,ESE,115,3.0,4.0,62,-99.99,,,0.00,,2013-05-25 09:52:00,
2013-05-25 04:02:00,46.0,34.0,-100.00,ESE,115,3.0,4.0,62,-99.99,,,0.00,,2013-05-25 10:02:00,
2013-05-25 04:12:00,45.0,34.0,-100.00,East,95,0.0,1.0,65,-99.99,,,0.00,,2013-05-25 10:12:00,
2013-05-25 04:22:00,45.0,34.0,-100.00,East,95,0.0,1.0,65,-99.99,,,0.00,,2013-05-25 10:22:00,
2013-05-25 04:32:00,45.0,34.0,-100.00,East,95,0.0,1.0,65,-99.99,,,0.00,,2013-05-25 10:32:00,
2013-05-25 04:42:00,45.0,34.0,-100.00,East,95,0.0,1.0,65,-99.99,,,0.00,,2013-05-25 10:42:00,
2013-05-25 04:52:00,44.0,35.0,-100.00,South,180,2.0,3.0,70,-99.99,,,0.00,,2013-05-25 10:52:00,
2013-05-25 05:02:00,44.0,35.0,-100.00,South,180,2.0,3.0,70,-99.99,,,0.00,,2013-05-25 11:02:00,
2013-05-25 05:12:00,44.0,34.0,-100.00,SE,130,1.0,2.0,68,-99.99,,,0.00,,2013-05-25 11:12:00,
2013-05-25 05:21:00,44.0,34.0,-100.00,SE,130,1.0,2.0,68,-99.99,,,0.00,,2013-05-25 11:21:00,
2013-05-25 05:32:00,44.0,34.0,-100.00,SE,130,1.0,2.0,68,-99.99,,,0.00,,2013-05-25 11:32:00,
2013-05-25 05:41:00,44.0,34.0,-100.00,SE,130,1.0,2.0,68,-99.99,,,0.00,,2013-05-25 11:41:00,
2013-05-25 05:52:00,43.0,34.0,-100.00,SSW,195,4.0,5.0,69,-99.99,,,0.00,,2013-05-25 11:52:00,
2013-05-25 06:01:00,43.0,34.0,-100.00,SSW,195,4.0,5.0,69,-99.99,,,0.00,,2013-05-25 12:01:00,
2013-05-25 06:12:00,44.0,36.0,-100.00,West,270,4.0,5.0,72,-99.99,,,0.00,,2013-05-25 12:12:00,
2013-05-25 06:22:00,44.0,36.0,-100.00,West,270,4.0,5.0,72,-99.99,,,0.00,,2013-05-25 12:22:00,
2013-05-25 06:32:00,44.0,36.0,-100.00,West,270,4.0,5.0,72,-99.99,,,0.00,,2013-05-25 12:32:00,
2013-05-25 06:42:00,44.0,36.0,-100.00,West,270,4.0,5.0,72,-99.99,,,0.00,,2013-05-25 12:42:00,
2013-05-25 06:52:00,49.0,38.0,-100.00,WSW,250,7.0,9.0,66,-99.99,,,0.00,,2013-05-25 12:52:00,
2013-05-25 07:02:00,49.0,38.0,-100.00,WSW,250,7.0,9.0,66,-99.99,,,0.00,,2013-05-25 13:02:00,
2013-05-25 07:11:00,50.0,38.0,-100.00,WSW,240,8.0,11.0,63,-99.99,,,0.00,,2013-05-25 13:11:00,
2013-05-25 07:21:00,50.0,38.0,-100.00,WSW,240,8.0,11.0,63,-99.99,,,0.00,,2013-05-25 13:21:00,
2013-05-25 07:32:00,50.0,38.0,-100.00,WSW,240,8.0,11.0,63,-99.99,,,0.00,,2013-05-25 13:32:00,
2013-05-25 07:42:00,50.0,38.0,-100.00,WSW,240,8.0,11.0,63,-99.99,,,0.00,,2013-05-25 13:42:00,
2013-05-25 07:52:00,50.0,38.0,-100.00,WSW,245,8.0,11.0,62,-99.99,,,0.00,,2013-05-25 13:52:00,
2013-05-25 08:02:00,50.0,38.0,-100.00,WSW,245,8.0,11.0,62,-99.99,,,0.00,,2013-05-25 14:02:00,
2013-05-25 08:11:00,53.0,37.0,-100.00,WSW,240,4.0,6.0,55,-99.99,,,0.00,,2013-05-25 14:11:00,
2013-05-25 08:22:00,53.0,37.0,-100.00,WSW,240,4.0,6.0,55,-99.99,,,0.00,,2013-05-25 14:22:00,
2013-05-25 08:32:00,53.0,37.0,-100.00,WSW,240,4.0,6.0,55,-99.99,,,0.00,,2013-05-25 14:32:00,
2013-05-25 08:41:00,53.0,37.0,-100.00,WSW,240,4.0,6.0,55,-99.99,,,0.00,,2013-05-25 14:41:00,
2013-05-25 08:52:00,55.0,38.0,-100.00,WSW,250,6.0,8.0,52,-99.99,,,0.00,,2013-05-25 14:52:00,
2013-05-25 09:01:00,55.0,38.0,-100.00,WSW,250,6.0,8.0,52,-99.99,,,0.00,,2013-05-25 15:01:00,
2013-05-25 09:11:00,56.0,37.0,-100.00,SW,235,6.0,7.0,49,-99.99,,,0.00,,2013-05-25 15:11:00,
2013-05-25 09:22:00,56.0,37.0,-100.00,SW,235,6.0,7.0,49,-99.99,,,0.00,,2013-05-25 15:22:00,
2013-05-25 09:33:00,56.0,37.0,-100.00,SW,235,6.0,7.0,49,-99.99,,,0.00,,2013-05-25 15:33:00,
2013-05-25 09:43:00,56.0,37.0,-100.00,SW,235,6.0,7.0,49,-99.99,,,0.00,,2013-05-25 15:43:00,
2013-05-25 09:53:00,61.0,37.0,-100.00,WSW,240,5.0,6.0,41,-99.99,,,0.00,,2013-05-25 15:53:00,
2013-05-25 10:03:00,61.0,37.0,-100.00,WSW,240,5.0,6.0,41,-99.99,,,0.00,,2013-05-25 16:03:00,
2013-05-25 10:12:00,63.0,37.0,-100.00,SW,235,6.0,9.0,38,-99.99,,,0.00,,2013-05-25 16:12:00,
2013-05-25 10:23:00,63.0,37.0,-100.00,SW,235,6.0,9.0,38,-99.99,,,0.00,,2013-05-25 16:23:00,
2013-05-25 10:32:00,63.0,37.0,-100.00,SW,235,6.0,9.0,38,-99.99,,,0.00,,2013-05-25 16:32:00,
2013-05-25 10:42:00,63.0,37.0,-100.00,SW,235,6.0,9.0,38,-99.99,,,0.00,,2013-05-25 16:42:00,
2013-05-25 10:52:00,65.0,37.0,-100.00,SW,230,5.0,7.0,35,-99.99,,,0.00,,2013-05-25 16:52:00,
2013-05-25 11:02:00,65.0,37.0,-100.00,SW,230,5.0,7.0,35,-99.99,,,0.00,,2013-05-25 17:02:00,
2013-05-25 11:11:00,68.0,38.0,-100.00,SSE,150,3.0,6.0,33,-99.99,,,0.00,,2013-05-25 17:11:00,
2013-05-25 11:22:00,68.0,38.0,-100.00,SSE,150,3.0,6.0,33,-99.99,,,0.00,,2013-05-25 17:22:00,
2013-05-25 11:32:00,68.0,38.0,-100.00,SSE,150,3.0,6.0,33,-99.99,,,0.00,,2013-05-25 17:32:00,
2013-05-25 11:41:00,68.0,38.0,-100.00,SSE,150,3.0,6.0,33,-99.99,,,0.00,,2013-05-25 17:41:00,
2013-05-25 11:52:00,68.0,36.0,-100.00,NNE,15,1.0,4.0,30,-99.99,,,0.00,,2013-05-25 17:52:00,
2013-05-25 12:01:00,68.0,36.0,-100.00,NNE,15,1.0,4.0,30,-99.99,,,0.00,,2013-05-25 18:01:00,
2013-05-25 12:11:00,70.0,36.0,-100.00,West,260,1.0,6.0,29,-99.99,,,0.00,,2013-05-25 18:11:00,
2013-05-25 12:21:00,70.0,36.0,-100.00,West,260,1.0,6.0,29,-99.99,,,0.00,,2013-05-25 18:21:00,
2013-05-25 12:32:00,70.0,36.0,-100.00,West,260,1.0,6.0,29,-99.99,,,0.00,,2013-05-25 18:32:00,
2013-05-25 12:42:00,70.0,36.0,-100.00,West,260,1.0,6.0,29,-99.99,,,0.00,,2013-05-25 18:42:00,
2013-05-25 12:52:00,71.0,35.0,-100.00,ENE,60,4.0,8.0,26,-99.99,,,0.00,,2013-05-25 18:52:00,
2013-05-25 13:01:00,71.0,35.0,-100.00,ENE,60,4.0,8.0,26,-99.99,,,0.00,,2013-05-25 19:01:00,
2013-05-25 13:11:00,71.0,35.0,-100.00,North,10,9.0,11.0,26,-99.99,,,0.00,,2013-05-25 19:11:00,
2013-05-25 13:21:00,71.0,35.0,-100.00,North,10,9.0,11.0,26,-99.99,,,0.00,,2013-05-25 19:21:00,
2013-05-25 13:31:00,71.0,35.0,-100.00,North,10,9.0,11.0,26,-99.99,,,0.00,,2013-05-25 19:31:00,
2013-05-25 13:41:00,71.0,35.0,-100.00,North,10,9.0,11.0,26,-99.99,,,0.00,,2013-05-25 19:41:00,
2013-05-25 14:52:00,76.0,34.0,-100.00,NE,55,9.0,14.0,22,-99.99,,,0.00,,2013-05-25 20:52:00,
2013-05-25 15:02:00,76.0,34.0,-100.00,NE,55,9.0,14.0,22,-99.99,,,0.00,,2013-05-25 21:02:00,
2013-05-25 15:11:00,76.0,34.0,-100.00,NNW,345,7.0,12.0,22,-99.99,,,0.00,,2013-05-25 21:11:00,
2013-05-25 15:21:00,76.0,34.0,-100.00,NNW,345,7.0,12.0,22,-99.99,,,0.00,,2013-05-25 21:21:00,
2013-05-25 15:33:00,76.0,34.0,-100.00,NNW,345,7.0,12.0,22,-99.99,,,0.00,,2013-05-25 21:33:00,
2013-05-25 15:43:00,76.0,34.0,-100.00,NNW,345,7.0,12.0,22,-99.99,,,0.00,,2013-05-25 21:43:00,
2013-05-25 15:53:00,78.0,34.0,-100.00,ENE,75,6.0,9.0,20,-99.99,,,0.00,,2013-05-25 21:53:00,
2013-05-25 16:03:00,78.0,34.0,-100.00,ENE,75,6.0,9.0,20,-99.99,,,0.00,,2013-05-25 22:03:00,
2013-05-25 16:12:00,75.0,33.0,-100.00,NE,40,12.0,16.0,21,-99.99,,,0.00,,2013-05-25 22:12:00,
2013-05-25 16:22:00,75.0,33.0,-100.00,NE,40,12.0,16.0,21,-99.99,,,0.00,,2013-05-25 22:22:00,
2013-05-25 16:32:00,75.0,33.0,-100.00,NE,40,12.0,16.0,21,-99.99,,,0.00,,2013-05-25 22:32:00,
2013-05-25 16:42:00,75.0,33.0,-100.00,NE,40,12.0,16.0,21,-99.99,,,0.00,,2013-05-25 22:42:00,
2013-05-25 16:52:00,75.0,33.0,-100.00,ENE,65,9.0,14.0,21,-99.99,,,0.00,,2013-05-25 22:52:00,
2013-05-25 17:02:00,75.0,33.0,-100.00,ENE,65,9.0,14.0,21,-99.99,,,0.00,,2013-05-25 23:02:00,
2013-05-25 17:12:00,74.0,33.0,-100.00,NNE,30,7.0,17.0,22,-99.99,,,0.00,,2013-05-25 23:12:00,
2013-05-25 17:21:00,74.0,33.0,-100.00,NNE,30,7.0,17.0,22,-99.99,,,0.00,,2013-05-25 23:21:00,
2013-05-25 17:32:00,74.0,33.0,-100.00,NNE,30,7.0,17.0,22,-99.99,,,0.00,,2013-05-25 23:32:00,
2013-05-25 17:42:00,74.0,33.0,-100.00,NNE,30,7.0,17.0,22,-99.99,,,0.00,,2013-05-25 23:42:00,
2013-05-25 17:52:00,75.0,35.0,-100.00,NE,55,16.0,21.0,23,-99.99,,,0.00,,2013-05-25 23:52:00,
2013-05-25 18:01:00,75.0,35.0,-100.00,NE,55,16.0,21.0,23,-99.99,,,0.00,,2013-05-26 00:01:00,
2013-05-25 18:11:00,73.0,33.0,-100.00,NNE,15,15.0,21.0,23,-99.99,,,0.00,,2013-05-26 00:11:00,
2013-05-25 18:21:00,73.0,33.0,-100.00,NNE,15,15.0,21.0,23,-99.99,,,0.00,,2013-05-26 00:21:00,
2013-05-25 18:31:00,73.0,33.0,-100.00,NNE,15,15.0,21.0,23,-99.99,,,0.00,,2013-05-26 00:31:00,
2013-05-25 18:42:00,73.0,33.0,-100.00,NNE,15,15.0,21.0,23,-99.99,,,0.00,,2013-05-26 00:42:00,
2013-05-25 18:52:00,73.0,34.0,-100.00,NE,50,8.0,18.0,24,-99.99,,,0.00,,2013-05-26 00:52:00,
2013-05-25 19:01:00,73.0,34.0,-100.00,NE,50,8.0,18.0,24,-99.99,,,0.00,,2013-05-26 01:01:00,
2013-05-25 19:11:00,71.0,34.0,-100.00,NE,35,12.0,20.0,25,-99.99,,,0.00,,2013-05-26 01:11:00,
2013-05-25 19:21:00,71.0,34.0,-100.00,NE,35,12.0,20.0,25,-99.99,,,0.00,,2013-05-26 01:21:00,
2013-05-25 19:32:00,71.0,34.0,-100.00,NE,35,12.0,20.0,25,-99.99,,,0.00,,2013-05-26 01:32:00,
2013-05-25 19:41:00,71.0,34.0,-100.00,NE,35,12.0,20.0,25,-99.99,,,0.00,,2013-05-26 01:41:00,
2013-05-25 19:52:00,70.0,33.0,-100.00,NE,40,9.0,16.0,25,-99.99,,,0.00,,2013-05-26 01:52:00,
2013-05-25 20:02:00,70.0,33.0,-100.00,NE,40,9.0,16.0,25,-99.99,,,0.00,,2013-05-26 02:02:00,
2013-05-25 20:11:00,70.0,33.0,-100.00,ENE,60,8.0,14.0,25,-99.99,,,0.00,,2013-05-26 02:11:00,
2013-05-25 20:21:00,70.0,33.0,-100.00,ENE,60,8.0,14.0,25,-99.99,,,0.00,,2013-05-26 02:21:00,
2013-05-25 20:32:00,70.0,33.0,-100.00,ENE,60,8.0,14.0,25,-99.99,,,0.00,,2013-05-26 02:32:00,
2013-05-25 20:41:00,70.0,33.0,-100.00,ENE,60,8.0,14.0,25,-99.99,,,0.00,,2013-05-26 02:41:00,
2013-05-25 20:52:00,69.0,33.0,-100.00,ENE,75,8.0,12.0,26,-99.99,,,0.00,,2013-05-26 02:52:00,
2013-05-25 21:01:00,69.0,33.0,-100.00,ENE,75,8.0,12.0,26,-99.99,,,0.00,,2013-05-26 03:01:00,
2013-05-25 21:11:00,67.0,32.0,-100.00,NE,55,6.0,12.0,27,-99.99,,,0.00,,2013-05-26 03:11:00,
2013-05-25 21:21:00,67.0,32.0,-100.00,NE,55,6.0,12.0,27,-99.99,,,0.00,,2013-05-26 03:21:00,
2013-05-25 21:33:00,67.0,32.0,-100.00,NE,55,6.0,12.0,27,-99.99,,,0.00,,2013-05-26 03:33:00,
2013-05-25 21:42:00,67.0,32.0,-100.00,NE,55,6.0,12.0,27,-99.99,,,0.00,,2013-05-26 03:42:00,
2013-05-25 21:53:00,66.0,32.0,-100.00,NNE,15,9.0,11.0,28,-99.99,,,0.00,,2013-05-26 03:53:00,
2013-05-25 22:02:00,66.0,32.0,-100.00,NNE,15,9.0,11.0,28,-99.99,,,0.00,,2013-05-26 04:02:00,
2013-05-25 22:12:00,65.0,32.0,-100.00,North,350,2.0,9.0,29,-99.99,,,0.00,,2013-05-26 04:12:00,
2013-05-25 22:23:00,65.0,32.0,-100.00,North,350,2.0,9.0,29,-99.99,,,0.00,,2013-05-26 04:23:00,
2013-05-25 22:33:00,65.0,32.0,-100.00,North,350,2.0,9.0,29,-99.99,,,0.00,,2013-05-26 04:33:00,
2013-05-25 22:42:00,65.0,32.0,-100.00,North,350,2.0,9.0,29,-99.99,,,0.00,,2013-05-26 04:42:00,
2013-05-25 22:52:00,64.0,33.0,-100.00,NW,320,3.0,9.0,31,-99.99,,,0.00,,2013-05-26 04:52:00,
2013-05-25 23:02:00,64.0,33.0,-100.00,NW,320,3.0,9.0,31,-99.99,,,0.00,,2013-05-26 05:02:00,
2013-05-25 23:12:00,66.0,32.0,-100.00,NW,320,4.0,20.0,28,-99.99,,,0.00,,2013-05-26 05:12:00,
2013-05-25 23:22:00,66.0,32.0,-100.00,NW,320,4.0,20.0,28,-99.99,,,0.00,,2013-05-26 05:22:00,
2013-05-25 23:32:00,66.0,32.0,-100.00,NW,320,4.0,20.0,28,-99.99,,,0.00,,2013-05-26 05:32:00,
2013-05-25 23:42:00,66.0,32.0,-100.00,NW,320,4.0,20.0,28,-99.99,,,0.00,,2013-05-26 05:42:00,
2013-05-25 23:52:00,65.0,32.0,-100.00,ESE,105,3.0,9.0,30,-99.99,,,0.00,,2013-05-26 05:52:00,